Nearby METAR Reports

 

K1V6 - Canon City, Colorado, USA
Distance from station: NE 34mi, 55km
Updated: 10/03/2022 2:35pm MDT
Clear
Clear
 Wind from SW
Wind: SW 10 mph , 17 km/h, Gust: 16 mph , 26 km/h
Temperature: 77°F , 25°C
Dew Point: 36°F , 2°C
Humidity: 22%
Barometer: 30.14 inHg , 1020.7 hPa
Clouds: Clear
Visibility: 10 miles , 16 km
2022/10/03 20:35 K1V6 032035Z AUTO 22009G14KT 211V271 10SM CLR 25/02 A3014 RMK AO2 LTG DSNT SW
K04V - Saguache Muni, Colorado, USA
Distance from station: W 35mi, 56km
Updated: 10/03/2022 2:35pm MDT
Mostly cloudy
Mostly cloudy
 Wind from ESE
Wind: ESE 7 mph , 11 km/h
Temperature: 55°F , 13°C
Dew Point: 43°F , 6°C
Humidity: 63%
Barometer: 30.33 inHg , 1027.1 hPa
Clouds: Mostly cloudy
Visibility: 10 miles , 16 km
Cloud details: Partly cloudy 7500 ft
Mostly cloudy 9000 ft
2022/10/03 20:35 K04V 032035Z AUTO 11006KT 10SM SCT075 BKN090 13/06 A3033 RMK AO2 LTG DSNT SE AND SW
 
KANK - Salida, Colorado, USA
Distance from station: NW 43mi, 69km
Updated: 10/03/2022 2:30pm MDT
Clear
Clear
 Wind from SW
Wind: SW 8 mph , 13 km/h
Temperature: 66°F , 19°C
Dew Point: 34°F , 1°C
Humidity: 30%
Barometer: 30.35 inHg , 1027.8 hPa
Clouds: Clear
Visibility: 10 miles , 16 km
2022/10/03 20:30 KANK 032030Z AUTO 22007KT 10SM CLR 19/01 A3035 RMK AO1 T01870014
KVTP - La Veta Pass, Colorado, USA
Distance from station: SSE 44mi, 71km
Updated: 10/03/2022 2:35pm MDT
Mostly cloudy
Mostly cloudy
 Wind from WNW
Wind: WNW 7 mph , 11 km/h
Temperature: 46°F , 8°C
Wind Chill: 42°F , 6°C
Dew Point: 32°F , 0°C
Humidity: 57%
Barometer: 30.42 inHg , 1030.1 hPa
Clouds: Mostly cloudy
Visibility: 10 miles , 16 km
Cloud details: Mostly cloudy 6000 ft
2022/10/03 20:35 KVTP 032035Z AUTO 30006KT 10SM BKN060 08/00 A3042 RMK AO2
 
KALS - Alamosa, Colorado, USA
Distance from station: SSW 48mi, 77km
Updated: 10/03/2022 2:52pm MDT
Clear
Clear
 Wind from NW
Wind: NW 5 mph , 7 km/h
Temperature: 61°F , 16°C
Dew Point: 43°F , 6°C
Humidity: 52%
Barometer: 30.30 inHg , 1026.1 hPa
Clouds: Clear
Visibility: 10 miles , 16 km
2022/10/03 20:52 KALS 032052Z AUTO 32004KT 10SM CLR 16/06 A3030 RMK AO2 SLP194 T01610061 58022